Time;durP1;ratioP1;P1;durP2;ratioP2;P2;SDS_P1;SDS_P2;PMS_P1;PMS_P2;Temp;Humidity;BMP_temperature;BMP_pressure;BME280_temperature;BME280_humidity;BME280_pressure;Samples;Min_cycle;Max_cycle;Signal;HPM_P1;HPM_P2
2023/03/18 00:01:38;;;;;;;5.03;3.30;;;;;;;19.05;28.69;101177.91;4967317;28;20055;-72
2023/03/18 00:04:06;;;;;;;5.72;3.25;;;;;;;18.99;29.26;101178.81;4964979;28;20106;-71
2023/03/18 00:06:39;;;;;;;7.28;3.92;;;;;;;18.83;28.69;101175.28;4963280;28;20059;-71
2023/03/18 00:09:10;;;;;;;7.75;3.97;;;;;;;18.70;30.19;101181.31;4969229;28;20081;-71
2023/03/18 00:11:39;;;;;;;6.15;3.50;;;;;;;18.65;29.38;101182.19;4966384;28;20138;-70
2023/03/18 00:14:08;;;;;;;4.68;3.42;;;;;;;18.60;29.21;101179.56;4967100;28;20050;-71
2023/03/18 00:16:37;;;;;;;7.95;3.38;;;;;;;18.54;29.00;101180.38;4967152;28;20638;-72
2023/03/18 00:19:06;;;;;;;9.00;4.28;;;;;;;18.52;28.70;101178.63;4967743;28;20067;-72
2023/03/18 00:21:34;;;;;;;6.57;3.70;;;;;;;18.41;28.90;101174.22;4967793;28;20047;-71
2023/03/18 00:24:04;;;;;;;7.63;4.03;;;;;;;18.25;29.10;101182.00;4960958;28;20050;-70
2023/03/18 00:26:34;;;;;;;9.27;3.55;;;;;;;18.14;29.42;101171.47;4968495;28;20054;-71
2023/03/18 00:29:02;;;;;;;6.32;3.75;;;;;;;18.10;29.74;101167.97;4970286;28;20563;-71
2023/03/18 00:31:31;;;;;;;9.30;3.60;;;;;;;18.10;31.19;101167.13;4968052;28;20053;-71
2023/03/18 00:34:00;;;;;;;4.90;3.15;;;;;;;18.03;30.32;101167.91;4966371;28;20062;-71
2023/03/18 00:36:29;;;;;;;6.72;3.53;;;;;;;17.95;32.98;101175.75;4965578;28;20154;-71
2023/03/18 00:39:02;;;;;;;6.25;3.65;;;;;;;17.86;31.83;101168.69;4967433;28;20138;-71
2023/03/18 00:41:31;;;;;;;9.05;3.33;;;;;;;17.80;31.66;101173.88;4966297;28;20066;-72
2023/03/18 00:44:02;;;;;;;7.40;2.92;;;;;;;17.79;31.80;101178.22;4964896;28;20069;-72
2023/03/18 00:46:32;;;;;;;6.45;3.30;;;;;;;17.71;30.48;101168.59;4963736;28;20050;-72
2023/03/18 00:49:05;;;;;;;8.52;3.20;;;;;;;17.67;32.00;101172.91;4967678;28;20501;-72
2023/03/18 00:51:36;;;;;;;5.93;3.13;;;;;;;17.61;31.06;101162.41;4964088;28;20047;-71
2023/03/18 00:54:06;;;;;;;7.00;2.90;;;;;;;17.48;31.02;101161.44;4967987;28;20073;-72
2023/03/18 00:56:36;;;;;;;5.22;2.67;;;;;;;17.49;32.45;101168.41;4965303;28;20070;-72
2023/03/18 00:59:07;;;;;;;4.72;2.70;;;;;;;17.43;32.41;101162.25;4967339;28;20312;-72
2023/03/18 01:01:37;;;;;;;5.30;2.60;;;;;;;17.41;32.49;101164.00;4971779;28;20081;-73
2023/03/18 01:04:07;;;;;;;4.55;2.83;;;;;;;17.41;32.95;101164.00;4967302;28;20531;-80
2023/03/18 01:06:37;;;;;;;4.25;2.15;;;;;;;17.41;32.98;101167.50;4967830;28;20039;-74
2023/03/18 01:09:07;;;;;;;5.32;2.45;;;;;;;17.40;32.24;101157.03;4967567;28;20074;-74
2023/03/18 01:11:36;;;;;;;5.45;2.72;;;;;;;17.37;32.50;101166.59;4964977;28;20117;-72
2023/03/18 01:14:07;;;;;;;4.80;2.08;;;;;;;17.31;32.19;101166.53;4960752;28;20489;-72
2023/03/18 01:16:36;;;;;;;3.10;2.20;;;;;;;17.22;32.96;101169.06;4966518;28;20046;-72
2023/03/18 01:19:05;;;;;;;4.07;2.10;;;;;;;17.09;33.38;101159.38;4963411;28;20058;-72
2023/03/18 01:21:34;;;;;;;4.90;2.33;;;;;;;17.15;32.60;101159.41;4966607;28;20047;-72
2023/03/18 01:24:03;;;;;;;4.00;2.38;;;;;;;17.16;34.03;101158.56;4962203;28;20047;-72
2023/03/18 01:26:31;;;;;;;5.13;2.50;;;;;;;17.15;33.40;101156.81;4969589;28;20087;-73
2023/03/18 01:29:00;;;;;;;8.32;2.75;;;;;;;17.15;33.02;101162.03;4969630;28;20204;-72
2023/03/18 01:31:30;;;;;;;5.72;2.33;;;;;;;17.14;33.04;101162.91;4970466;28;20050;-72
2023/03/18 01:33:59;;;;;;;4.25;2.42;;;;;;;17.12;33.88;101168.13;4971468;28;20067;-72
2023/03/18 01:36:28;;;;;;;6.47;2.67;;;;;;;17.09;34.95;101167.22;4968954;28;20117;-73
2023/03/18 01:38:57;;;;;;;4.78;2.35;;;;;;;17.04;33.52;101171.50;4969978;28;21013;-73
2023/03/18 01:41:26;;;;;;;5.68;2.17;;;;;;;17.00;35.28;101168.00;4965886;28;20078;-72
2023/03/18 01:43:55;;;;;;;4.53;2.08;;;;;;;16.91;35.41;101168.78;4966470;28;20047;-71
2023/03/18 01:46:39;;;;;;;8.05;2.15;;;;;;;16.82;34.74;101171.31;4970063;28;20145;-71
2023/03/18 01:49:11;;;;;;;6.90;2.15;;;;;;;16.76;35.28;101174.69;4965637;28;20640;-72
2023/03/18 01:51:42;;;;;;;4.07;2.45;;;;;;;16.71;34.49;101170.28;4965714;28;20484;-72
2023/03/18 01:54:12;;;;;;;11.35;2.30;;;;;;;16.66;34.51;101167.63;4969270;28;20061;-72
2023/03/18 01:56:44;;;;;;;6.68;2.42;;;;;;;16.62;34.40;101165.81;4972730;28;20090;-72
2023/03/18 01:59:13;;;;;;;3.08;2.30;;;;;;;16.58;34.53;101157.94;4968284;28;20058;-72
2023/03/18 02:01:50;;;;;;;3.33;2.08;;;;;;;16.52;36.45;101157.03;4968528;28;20047;-72
2023/03/18 02:04:22;;;;;;;5.18;2.33;;;;;;;16.37;37.80;101172.50;4970313;28;20547;-72
2023/03/18 02:06:50;;;;;;;4.38;2.17;;;;;;;16.20;38.28;101168.81;4968065;28;20089;-72
2023/03/18 02:09:19;;;;;;;9.02;2.25;;;;;;;16.10;38.37;101168.69;4968967;28;20051;-71
2023/03/18 02:11:50;;;;;;;4.18;2.70;;;;;;;16.06;38.28;101166.03;4969140;28;20146;-71
2023/03/18 02:14:27;;;;;;;6.50;2.85;;;;;;;15.99;38.00;101159.84;4975775;28;20051;-71
2023/03/18 02:17:01;;;;;;;7.07;2.53;;;;;;;15.96;38.37;101167.59;4970442;28;20138;-72
2023/03/18 02:19:55;;;;;;;8.90;2.65;;;;;;;15.88;38.43;101169.25;4970251;28;20066;-71
2023/03/18 02:22:32;;;;;;;11.55;3.08;;;;;;;15.79;39.00;101158.69;4966361;28;20043;-70
2023/03/18 02:25:16;;;;;;;9.40;2.85;;;;;;;15.73;39.10;101154.22;4970570;28;20142;-71
2023/03/18 02:27:49;;;;;;;5.50;2.65;;;;;;;15.65;39.04;101155.84;4970718;28;20054;-71
2023/03/18 02:30:21;;;;;;;4.18;2.65;;;;;;;15.59;39.48;101163.56;4969086;28;20046;-71
2023/03/18 02:32:51;;;;;;;5.28;2.75;;;;;;;15.54;39.66;101170.44;4968452;28;20049;-71
2023/03/18 02:35:20;;;;;;;6.10;2.70;;;;;;;15.49;40.19;101176.44;4969745;28;20141;-72
2023/03/18 02:37:48;;;;;;;5.70;2.47;;;;;;;15.43;40.73;101181.56;4961418;28;21234;-72
2023/03/18 02:40:19;;;;;;;4.55;2.85;;;;;;;15.36;40.33;101181.44;4970057;28;20039;-70
2023/03/18 02:42:50;;;;;;;5.32;2.50;;;;;;;15.27;41.00;101179.56;4966302;28;20046;-72
2023/03/18 02:45:36;;;;;;;5.20;2.95;;;;;;;15.17;41.08;101183.72;4966562;28;20062;-72
2023/03/18 02:48:07;;;;;;;5.55;2.92;;;;;;;15.11;41.49;101177.53;4968139;28;20424;-72
2023/03/18 02:50:37;;;;;;;5.10;2.80;;;;;;;15.06;42.56;101187.88;4971717;28;20042;-71
2023/03/18 02:53:06;;;;;;;5.55;2.60;;;;;;;15.00;43.68;101191.25;4967818;28;20142;-70
2023/03/18 02:55:35;;;;;;;7.15;2.35;;;;;;;14.92;44.43;101178.94;4969721;28;20059;-71
2023/03/18 02:58:06;;;;;;;5.90;2.50;;;;;;;14.83;42.06;101177.03;4964835;28;20058;-70
2023/03/18 03:00:35;;;;;;;6.10;2.55;;;;;;;14.77;43.31;101183.00;4966497;28;20097;-70
2023/03/18 03:03:04;;;;;;;6.22;2.72;;;;;;;14.69;43.73;101192.41;4965345;28;20046;-70
2023/03/18 03:05:35;;;;;;;4.40;2.20;;;;;;;14.54;47.53;101195.56;4968794;28;20764;-71
2023/03/18 03:08:04;;;;;;;8.15;2.70;;;;;;;14.37;46.63;101196.94;4969346;28;20050;-71
2023/03/18 03:10:32;;;;;;;6.20;3.00;;;;;;;14.29;47.08;101183.72;4971338;28;20113;-71
2023/03/18 03:13:01;;;;;;;6.30;3.08;;;;;;;14.25;46.65;101181.94;4975739;28;20057;-71
2023/03/18 03:15:31;;;;;;;11.48;3.33;;;;;;;14.21;46.74;101180.09;4970153;28;20579;-71
2023/03/18 03:18:00;;;;;;;14.57;3.65;;;;;;;14.17;47.33;101183.47;4969704;28;20058;-71
2023/03/18 03:20:28;;;;;;;8.07;3.88;;;;;;;14.13;47.16;101182.56;4965700;28;20097;-70
2023/03/18 03:22:57;;;;;;;7.82;3.15;;;;;;;14.08;47.51;101191.09;4971308;28;20059;-71
2023/03/18 03:25:26;;;;;;;9.18;3.53;;;;;;;14.02;46.88;101190.09;4965341;28;20563;-72
2023/03/18 03:27:55;;;;;;;12.25;4.15;;;;;;;13.96;47.08;101189.09;4963282;28;20109;-72
2023/03/18 03:30:25;;;;;;;7.43;3.55;;;;;;;13.90;46.70;101187.22;4968584;28;20050;-83
2023/03/18 03:32:55;;;;;;;6.75;3.60;;;;;;;13.85;46.83;101193.16;4968689;28;20061;-73
2023/03/18 03:35:24;;;;;;;6.53;3.65;;;;;;;13.79;47.03;101202.59;4964372;28;20042;-73
2023/03/18 03:37:53;;;;;;;5.47;3.35;;;;;;;13.72;47.33;101189.38;4968918;28;20058;-73
2023/03/18 03:40:22;;;;;;;7.43;4.30;;;;;;;13.65;46.80;101187.50;4963996;28;20046;-73
2023/03/18 03:42:51;;;;;;;7.80;3.75;;;;;;;13.59;46.94;101193.44;4964705;28;20559;-72
2023/03/18 03:45:20;;;;;;;9.88;4.03;;;;;;;13.54;47.22;101188.13;4970201;28;20533;-71
2023/03/18 03:47:50;;;;;;;11.60;4.70;;;;;;;13.49;47.04;101194.03;4969553;28;20059;-71
2023/03/18 03:50:20;;;;;;;8.98;4.85;;;;;;;13.43;47.56;101204.31;4968137;28;20950;-72
2023/03/18 03:52:49;;;;;;;14.02;6.72;;;;;;;13.38;47.95;101204.19;4969530;28;20575;-72
2023/03/18 03:55:21;;;;;;;12.98;6.15;;;;;;;13.31;47.01;101203.16;4967404;28;20051;-71
2023/03/18 03:57:50;;;;;;;11.27;4.97;;;;;;;13.27;47.87;101205.59;4969301;28;20063;-70
2023/03/18 04:00:21;;;;;;;16.80;6.88;;;;;;;13.20;48.04;101210.63;4967510;28;20110;-70
2023/03/18 04:02:51;;;;;;;13.65;7.07;;;;;;;13.12;47.86;101201.75;4968644;28;20058;-70
2023/03/18 04:05:23;;;;;;;12.35;5.70;;;;;;;13.05;48.77;101210.22;4966413;28;20055;-71
2023/03/18 04:07:54;;;;;;;13.10;5.70;;;;;;;12.99;48.34;101215.28;4964640;28;20047;-71
2023/03/18 04:10:23;;;;;;;14.35;5.05;;;;;;;12.91;47.69;101206.38;4968206;28;20046;-70
2023/03/18 04:12:51;;;;;;;10.35;4.75;;;;;;;12.85;48.05;101216.59;4966366;28;20082;-71
2023/03/18 04:15:21;;;;;;;10.75;5.03;;;;;;;12.79;48.44;101215.59;4966965;28;20058;-71
2023/03/18 04:17:50;;;;;;;8.55;3.80;;;;;;;12.74;49.79;101224.09;4966266;28;20493;-71
2023/03/18 04:20:21;;;;;;;13.05;4.78;;;;;;;12.69;49.40;101217.88;4968381;28;20043;-70
2023/03/18 04:22:49;;;;;;;12.68;4.80;;;;;;;12.63;49.58;101226.38;4963212;28;20050;-71
2023/03/18 04:25:18;;;;;;;14.32;4.53;;;;;;;12.60;49.90;101228.00;4967690;28;20058;-71
2023/03/18 04:27:47;;;;;;;13.90;4.70;;;;;;;12.54;49.85;101231.31;4964082;28;20505;-71
2023/03/18 04:30:16;;;;;;;10.18;5.00;;;;;;;12.48;50.12;101229.41;4967121;28;20130;-71
2023/03/18 04:32:45;;;;;;;13.20;5.75;;;;;;;12.43;49.91;101237.91;4969016;28;20101;-72
2023/03/18 04:35:15;;;;;;;13.90;6.65;;;;;;;12.36;50.47;101237.72;4960256;28;20062;-71
2023/03/18 04:37:45;;;;;;;15.43;6.10;;;;;;;12.30;51.02;101237.56;4968194;28;20046;-71
2023/03/18 04:40:14;;;;;;;12.18;5.53;;;;;;;12.26;50.45;101240.88;4967374;28;20050;-72
2023/03/18 04:42:44;;;;;;;16.23;5.55;;;;;;;12.20;50.94;101243.28;4970119;28;20046;-71
2023/03/18 04:45:13;;;;;;;11.20;4.82;;;;;;;12.15;50.63;101247.44;4968063;28;20043;-71
2023/03/18 04:47:42;;;;;;;14.25;5.28;;;;;;;12.11;51.11;101245.59;4968598;28;20057;-71
2023/03/18 04:50:12;;;;;;;13.38;5.20;;;;;;;12.05;51.45;101248.88;4967503;28;20055;-71
2023/03/18 04:52:40;;;;;;;11.65;5.68;;;;;;;12.00;53.05;101247.84;4965769;28;20061;-71
2023/03/18 04:55:12;;;;;;;14.68;5.45;;;;;;;11.89;51.86;101250.13;4967468;28;20523;-71
2023/03/18 04:57:41;;;;;;;15.10;5.38;;;;;;;11.79;52.63;101253.19;4966549;28;20055;-80
2023/03/18 05:00:12;;;;;;;11.73;4.45;;;;;;;11.70;52.47;101242.53;4970626;28;20069;-72
2023/03/18 05:02:41;;;;;;;11.95;5.20;;;;;;;11.64;53.94;101244.94;4968090;28;20117;-71
2023/03/18 05:05:10;;;;;;;9.60;4.18;;;;;;;11.56;54.12;101238.59;4967980;28;20531;-72
2023/03/18 05:07:38;;;;;;;8.43;4.40;;;;;;;11.55;54.23;101244.63;4970769;28;20055;-72
2023/03/18 05:10:08;;;;;;;7.22;4.03;;;;;;;11.51;53.88;101244.50;4970274;28;20137;-72
2023/03/18 05:12:38;;;;;;;7.40;3.75;;;;;;;11.46;55.07;101240.00;4970065;28;20086;-69
2023/03/18 05:15:08;;;;;;;5.93;3.15;;;;;;;11.45;54.87;101241.72;4969926;28;20464;-70
2023/03/18 05:17:37;;;;;;;9.38;3.63;;;;;;;11.44;54.83;101242.53;4970386;28;20055;-70
2023/03/18 05:20:06;;;;;;;6.70;3.63;;;;;;;11.43;54.30;101245.97;4970657;28;20145;-70
2023/03/18 05:22:35;;;;;;;7.00;3.72;;;;;;;11.40;55.68;101240.66;4967285;28;20524;-69
2023/03/18 05:25:04;;;;;;;9.65;3.92;;;;;;;11.38;55.53;101244.91;4971709;28;20072;-70
2023/03/18 05:27:32;;;;;;;12.98;4.18;;;;;;;11.37;55.17;101248.34;4970441;28;20122;-70
2023/03/18 05:30:02;;;;;;;16.70;3.80;;;;;;;11.35;55.64;101247.41;4966823;28;20408;-71
2023/03/18 05:32:32;;;;;;;9.73;3.95;;;;;;;11.35;56.20;101243.94;4970160;28;20071;-70
2023/03/18 05:35:00;;;;;;;9.18;4.00;;;;;;;11.32;56.12;101249.91;4970765;28;20111;-70
2023/03/18 05:37:29;;;;;;;9.80;3.92;;;;;;;11.28;56.38;101253.22;4968619;28;20058;-72
2023/03/18 05:39:58;;;;;;;10.05;3.75;;;;;;;11.26;56.53;101262.66;4973561;28;20586;-71
2023/03/18 05:42:26;;;;;;;7.18;3.83;;;;;;;11.24;57.43;101259.13;4969533;28;20101;-71
2023/03/18 05:44:56;;;;;;;5.18;3.20;;;;;;;11.23;57.09;101253.06;4968105;28;20147;-71
2023/03/18 05:47:26;;;;;;;9.77;3.70;;;;;;;11.22;58.57;101250.41;4969819;28;20595;-70
2023/03/18 05:49:55;;;;;;;7.95;3.55;;;;;;;11.10;57.66;101250.88;4970870;28;20500;-70
2023/03/18 05:52:23;;;;;;;9.32;3.45;;;;;;;11.02;59.31;101250.59;4970476;28;20043;-70
2023/03/18 05:54:53;;;;;;;6.40;3.33;;;;;;;10.92;59.80;101256.25;4970959;28;20055;-70
2023/03/18 05:57:21;;;;;;;9.60;3.58;;;;;;;10.86;59.35;101254.34;4970471;28;20536;-71
2023/03/18 05:59:51;;;;;;;4.85;3.25;;;;;;;10.79;60.89;101246.28;4971109;28;20085;-70
2023/03/18 06:02:19;;;;;;;10.73;3.45;;;;;;;10.78;60.92;101244.53;4966768;28;20138;-70
2023/03/18 06:04:49;;;;;;;9.45;3.30;;;;;;;10.77;59.35;101240.19;4966669;28;20540;-71
2023/03/18 06:07:19;;;;;;;10.07;3.33;;;;;;;10.73;58.93;101241.78;4970632;28;20046;-70
2023/03/18 06:09:48;;;;;;;8.10;3.58;;;;;;;10.67;59.94;101245.03;4969985;28;20473;-71
2023/03/18 06:12:19;;;;;;;8.85;3.95;;;;;;;10.61;59.92;101257.75;4965899;28;20054;-71
2023/03/18 06:14:47;;;;;;;7.57;4.07;;;;;;;10.57;59.99;101252.41;4966905;28;20043;-70
2023/03/18 06:17:16;;;;;;;9.63;3.75;;;;;;;10.54;59.69;101253.16;4968686;28;20055;-71
2023/03/18 06:19:44;;;;;;;7.43;3.30;;;;;;;10.51;60.30;101249.56;4969331;28;20105;-71
2023/03/18 06:22:15;;;;;;;8.00;3.28;;;;;;;10.46;60.34;101250.25;4968753;28;20054;-71
2023/03/18 06:24:44;;;;;;;5.90;3.15;;;;;;;10.41;60.81;101248.34;4969434;28;20054;-71
2023/03/18 06:27:12;;;;;;;8.05;3.53;;;;;;;10.35;60.40;101238.63;4969334;28;20958;-72
2023/03/18 06:29:41;;;;;;;8.63;3.78;;;;;;;10.31;60.16;101246.22;4969047;28;20528;-71
2023/03/18 06:32:10;;;;;;;8.02;2.95;;;;;;;10.25;60.12;101252.00;4969392;28;20448;-70
2023/03/18 06:34:38;;;;;;;6.72;3.85;;;;;;;10.17;60.20;101249.13;4971290;28;20039;-70
2023/03/18 06:37:08;;;;;;;8.18;3.15;;;;;;;10.13;61.54;101252.41;4969469;28;20568;-70
2023/03/18 06:39:38;;;;;;;6.80;2.92;;;;;;;10.07;61.13;101244.41;4969672;28;20105;-70
2023/03/18 06:42:07;;;;;;;9.07;3.45;;;;;;;10.04;60.77;101257.22;4966541;28;20559;-72
2023/03/18 06:44:36;;;;;;;6.55;3.42;;;;;;;10.00;61.88;101255.34;4968161;28;20133;-71
2023/03/18 06:47:04;;;;;;;6.10;3.20;;;;;;;9.96;61.50;101251.75;4966890;28;20595;-71
2023/03/18 06:49:39;;;;;;;6.60;4.10;;;;;;;9.93;61.75;101255.91;4967320;28;20390;-70
2023/03/18 06:52:08;;;;;;;9.38;4.63;;;;;;;9.89;62.53;101264.38;4968867;28;20069;-71
2023/03/18 06:54:39;;;;;;;6.97;3.67;;;;;;;9.84;62.87;101274.53;4969088;28;20488;-71
2023/03/18 06:57:07;;;;;;;13.52;3.30;;;;;;;9.77;63.43;101270.81;4968295;28;20063;-70
2023/03/18 06:59:36;;;;;;;4.80;2.28;;;;;;;9.76;64.02;101265.59;4965349;28;20081;-71
2023/03/18 07:02:07;;;;;;;7.82;2.70;;;;;;;9.73;64.62;101265.44;4965665;28;20634;-71
2023/03/18 07:04:35;;;;;;;9.00;3.13;;;;;;;9.73;64.17;101260.28;4968356;28;20049;-71
2023/03/18 07:07:05;;;;;;;8.68;3.30;;;;;;;9.71;64.79;101257.66;4969037;28;20055;-71
2023/03/18 07:09:33;;;;;;;5.50;2.70;;;;;;;9.66;65.25;101259.13;4968499;28;20074;-71
2023/03/18 07:12:05;;;;;;;5.20;2.83;;;;;;;9.56;67.12;101251.84;4968787;28;20129;-71
2023/03/18 07:14:33;;;;;;;8.10;3.03;;;;;;;9.54;67.05;101248.31;4968169;28;20050;-71
2023/03/18 07:17:02;;;;;;;6.40;3.00;;;;;;;9.51;67.49;101243.03;4968714;28;20059;-71
2023/03/18 07:19:37;;;;;;;7.22;2.38;;;;;;;9.46;68.13;101239.34;4968187;28;20141;-70
2023/03/18 07:22:05;;;;;;;5.25;2.50;;;;;;;9.39;67.02;101239.13;4966446;28;20059;-71
2023/03/18 07:24:34;;;;;;;6.95;2.33;;;;;;;9.38;68.15;101242.50;4966292;28;20611;-71
2023/03/18 07:27:06;;;;;;;7.28;2.75;;;;;;;9.36;67.83;101241.53;4960708;28;20049;-71
2023/03/18 07:29:34;;;;;;;4.57;2.55;;;;;;;9.37;66.61;101245.03;4969173;28;21002;-70
2023/03/18 07:32:03;;;;;;;16.10;3.00;;;;;;;9.37;67.88;101245.91;4973334;28;20042;-70
2023/03/18 07:34:31;;;;;;;8.07;2.75;;;;;;;9.32;67.25;101247.41;4970964;28;20078;-71
2023/03/18 07:37:01;;;;;;;5.47;2.70;;;;;;;9.35;67.99;101246.66;4962454;28;20489;-70
2023/03/18 07:39:29;;;;;;;5.38;2.72;;;;;;;9.34;67.02;101245.75;4968017;28;20058;-70
2023/03/18 07:41:58;;;;;;;5.22;2.67;;;;;;;9.32;67.88;101247.41;4968560;28;20055;-71
2023/03/18 07:44:28;;;;;;;7.93;3.25;;;;;;;9.32;68.12;101244.84;4961722;28;20073;-71
2023/03/18 07:46:57;;;;;;;6.82;3.15;;;;;;;9.30;67.62;101243.88;4962425;28;20063;-71
2023/03/18 07:49:26;;;;;;;4.80;2.38;;;;;;;9.28;67.48;101250.69;4966390;28;20042;-71
2023/03/18 07:51:54;;;;;;;9.32;2.40;;;;;;;9.27;68.44;101254.06;4964920;28;20047;-71
2023/03/18 07:54:23;;;;;;;10.40;2.45;;;;;;;9.27;67.85;101253.19;4965070;28;20058;-71
2023/03/18 07:56:52;;;;;;;6.38;3.42;;;;;;;9.23;68.39;101253.06;4968389;28;20133;-71
2023/03/18 07:59:21;;;;;;;6.03;2.78;;;;;;;9.21;68.26;101254.69;4962339;28;20464;-70
2023/03/18 08:01:51;;;;;;;6.15;2.53;;;;;;;9.16;67.84;101247.56;4965983;28;20049;-70
2023/03/18 08:04:20;;;;;;;7.88;3.10;;;;;;;9.13;68.21;101250.00;4964849;28;20593;-70
2023/03/18 08:06:49;;;;;;;7.88;2.97;;;;;;;9.08;68.26;101246.38;4964621;28;20078;-70
2023/03/18 08:09:18;;;;;;;9.57;2.92;;;;;;;9.06;69.25;101248.00;4964654;28;20053;-71
2023/03/18 08:11:46;;;;;;;6.63;2.72;;;;;;;9.03;70.29;101251.31;4962343;28;20819;-70
2023/03/18 08:14:15;;;;;;;9.68;2.67;;;;;;;8.97;71.01;101254.50;4965610;28;20054;-70
2023/03/18 08:16:44;;;;;;;5.05;2.45;;;;;;;8.89;71.99;101248.13;4959611;28;20756;-71
2023/03/18 08:19:14;;;;;;;6.45;2.95;;;;;;;8.75;71.67;101246.63;4965855;28;20610;-69
2023/03/18 08:21:44;;;;;;;5.38;2.45;;;;;;;8.66;72.18;101246.22;4966383;28;20105;-69
2023/03/18 08:24:12;;;;;;;8.38;2.30;;;;;;;8.60;71.28;101242.53;4965327;28;20046;-70
2023/03/18 08:26:41;;;;;;;6.53;2.70;;;;;;;8.64;71.39;101251.31;4964375;28;20125;-70
2023/03/18 08:29:10;;;;;;;8.25;3.45;;;;;;;8.67;71.23;101242.84;4966513;28;20054;-70
2023/03/18 08:31:39;;;;;;;7.15;2.78;;;;;;;8.68;70.76;101234.25;4965330;28;20061;-70
2023/03/18 08:34:08;;;;;;;10.27;2.97;;;;;;;8.69;70.78;101244.66;4966009;28;20548;-70
2023/03/18 08:36:38;;;;;;;6.68;2.97;;;;;;;8.71;70.73;101247.31;4967791;28;20500;-70
2023/03/18 08:39:08;;;;;;;5.05;2.50;;;;;;;8.72;69.92;101241.34;4968037;28;20063;-70
2023/03/18 08:41:37;;;;;;;7.38;3.45;;;;;;;8.72;70.72;101238.75;4974540;28;20061;-71
2023/03/18 08:44:09;;;;;;;4.45;2.78;;;;;;;8.73;71.87;101237.97;4969326;28;20109;-70
2023/03/18 08:46:37;;;;;;;6.20;2.70;;;;;;;8.71;71.16;101229.25;4967082;28;20051;-70
2023/03/18 08:49:07;;;;;;;7.47;2.72;;;;;;;8.69;71.21;101234.34;4969463;28;20062;-70
2023/03/18 08:51:38;;;;;;;6.82;2.45;;;;;;;8.69;70.43;101236.06;4968394;28;20050;-71
2023/03/18 08:54:07;;;;;;;6.78;2.67;;;;;;;8.66;70.89;101241.06;4969033;28;20082;-70
2023/03/18 08:56:37;;;;;;;4.88;2.88;;;;;;;8.64;71.95;101237.53;4970987;28;20825;-70
2023/03/18 08:59:05;;;;;;;3.80;1.92;;;;;;;8.59;74.77;101235.63;4970756;28;20054;-71
2023/03/18 09:01:34;;;;;;;8.02;2.53;;;;;;;8.56;75.41;101235.47;4965830;28;20057;-70
2023/03/18 09:04:03;;;;;;;5.13;2.45;;;;;;;8.55;73.53;101233.72;4968072;28;20061;-71
2023/03/18 09:06:32;;;;;;;3.58;2.17;;;;;;;8.56;73.53;101232.91;4971103;28;20141;-71
2023/03/18 09:09:02;;;;;;;6.35;2.90;;;;;;;8.56;72.90;101235.47;4967952;28;20424;-71
2023/03/18 09:11:30;;;;;;;8.45;3.17;;;;;;;8.56;72.09;101229.44;4967045;28;20572;-71
2023/03/18 09:13:59;;;;;;;6.28;2.80;;;;;;;8.56;71.37;101227.75;4968297;28;20057;-71
2023/03/18 09:16:28;;;;;;;7.57;2.80;;;;;;;8.54;71.06;101225.91;4965924;28;20066;-71
2023/03/18 09:18:57;;;;;;;6.65;2.45;;;;;;;8.51;72.69;101221.50;4968091;28;20054;-71
2023/03/18 09:21:25;;;;;;;5.25;2.83;;;;;;;8.48;71.34;101226.53;4966479;28;20051;-71
2023/03/18 09:23:54;;;;;;;6.75;3.17;;;;;;;8.43;70.90;101222.88;4967092;28;20054;-71
2023/03/18 09:26:24;;;;;;;6.88;2.63;;;;;;;8.40;71.63;101235.59;4968276;28;21197;-71
2023/03/18 09:28:53;;;;;;;6.18;2.38;;;;;;;8.36;71.68;101233.66;4968952;28;20416;-71
2023/03/18 09:31:22;;;;;;;7.32;3.17;;;;;;;8.32;71.05;101230.06;4969822;28;20519;-71
2023/03/18 09:33:50;;;;;;;5.72;2.92;;;;;;;8.26;72.16;101226.31;4972010;28;20038;-71
2023/03/18 09:36:19;;;;;;;4.28;2.83;;;;;;;8.22;71.52;101221.81;4970250;28;20061;-71
2023/03/18 09:38:47;;;;;;;4.40;2.38;;;;;;;8.18;72.03;101220.81;4965848;28;20443;-71
2023/03/18 09:41:34;;;;;;;4.70;2.30;;;;;;;8.10;72.82;101223.00;4962104;28;20516;-71
2023/03/18 09:44:12;;;;;;;7.50;2.88;;;;;;;8.05;74.14;101229.66;4960138;28;20416;-70
2023/03/18 09:47:04;;;;;;;8.00;3.28;;;;;;;8.01;73.03;101227.75;4964942;28;20050;-70
2023/03/18 09:49:43;;;;;;;6.72;2.65;;;;;;;7.88;76.34;101231.44;4963176;28;20060;-71
2023/03/18 09:52:22;;;;;;;8.48;2.75;;;;;;;7.78;77.54;101228.34;4960885;28;20062;-70
2023/03/18 09:54:59;;;;;;;4.90;2.45;;;;;;;7.72;77.17;101224.66;4965945;28;20047;-70
2023/03/18 09:57:33;;;;;;;4.03;2.10;;;;;;;7.71;76.97;101222.88;4962883;28;20043;-71
2023/03/18 10:00:08;;;;;;;10.32;2.30;;;;;;;7.68;76.21;101227.91;4977495;28;20046;-71
2023/03/18 10:02:41;;;;;;;9.23;2.25;;;;;;;7.66;76.58;101223.47;4968436;28;20148;-70
2023/03/18 10:05:16;;;;;;;4.75;2.80;;;;;;;7.65;77.46;101225.19;4969148;28;20046;-70
2023/03/18 10:07:48;;;;;;;3.55;2.10;;;;;;;7.64;76.99;101227.69;4969485;28;20138;-71
2023/03/18 10:10:25;;;;;;;5.35;1.95;;;;;;;7.59;76.71;101227.44;4969468;28;20093;-70
2023/03/18 10:13:04;;;;;;;6.30;2.58;;;;;;;7.57;76.60;101231.63;4964236;28;20453;-70
2023/03/18 10:15:37;;;;;;;8.15;2.42;;;;;;;7.55;76.20;101228.09;4968996;28;20137;-71
2023/03/18 10:18:14;;;;;;;6.03;2.42;;;;;;;7.52;75.69;101230.53;4966775;28;20058;-71
2023/03/18 10:21:00;;;;;;;7.05;2.22;;;;;;;7.49;76.07;101236.41;4970833;28;20497;-70
2023/03/18 10:23:40;;;;;;;3.83;2.05;;;;;;;7.49;77.25;101235.50;4970931;28;20394;-70
2023/03/18 10:26:17;;;;;;;4.95;1.80;;;;;;;7.48;77.45;101238.91;4967326;28;20038;-71
2023/03/18 10:29:01;;;;;;;7.47;2.50;;;;;;;7.48;78.51;101233.75;4963899;28;20727;-70
2023/03/18 10:31:53;;;;;;;4.35;2.42;;;;;;;7.45;78.39;101239.66;4975109;28;20051;-70
2023/03/18 10:34:23;;;;;;;5.35;3.22;;;;;;;7.44;78.37;101243.00;4966335;28;20050;-70
2023/03/18 10:36:56;;;;;;;6.45;2.80;;;;;;;7.45;78.86;101236.19;4960053;28;20034;-71
2023/03/18 10:39:27;;;;;;;8.70;2.65;;;;;;;7.45;78.04;101236.19;4966448;28;20055;-71
2023/03/18 10:41:59;;;;;;;9.18;3.58;;;;;;;7.45;77.78;101228.47;4968736;28;20043;-71
2023/03/18 10:44:34;;;;;;;5.47;2.45;;;;;;;7.43;77.80;101233.53;4970694;28;20476;-71
2023/03/18 10:47:11;;;;;;;10.32;2.72;;;;;;;7.43;77.49;101235.22;4969104;28;20500;-71
2023/03/18 10:49:44;;;;;;;7.88;3.17;;;;;;;7.42;77.54;101234.34;4964448;28;20093;-71
2023/03/18 10:52:15;;;;;;;;;;;;;;;7.42;78.01;101230.88;4961689;28;20043;-72
2023/03/18 10:54:49;;;;;;;6.43;2.85;;;;;;;7.41;78.18;101227.41;4962003;28;19930;-70
2023/03/18 10:57:18;;;;;;;4.88;2.47;;;;;;;7.43;77.92;101232.66;4967984;28;20173;-70
2023/03/18 10:59:50;;;;;;;9.82;3.75;;;;;;;7.42;78.25;101224.06;4969498;28;20121;-71
2023/03/18 11:02:23;;;;;;;8.70;2.95;;;;;;;7.43;77.54;101219.78;4963980;28;20055;-70
2023/03/18 11:04:55;;;;;;;8.35;2.47;;;;;;;7.44;78.08;101218.97;4969852;28;20046;-70
2023/03/18 11:07:27;;;;;;;8.10;2.90;;;;;;;7.46;77.50;101219.91;4965537;28;20866;-71
2023/03/18 11:09:56;;;;;;;4.93;2.67;;;;;;;7.47;77.49;101221.72;4969900;28;20416;-71
2023/03/18 11:12:27;;;;;;;4.75;2.17;;;;;;;7.46;77.84;101225.06;4966237;28;20051;-70
2023/03/18 11:14:58;;;;;;;5.88;3.03;;;;;;;7.45;77.81;101219.03;4969239;28;20412;-69
2023/03/18 11:17:29;;;;;;;3.85;2.33;;;;;;;7.42;79.78;101215.41;4963631;28;20506;-71
2023/03/18 11:20:04;;;;;;;8.37;3.00;;;;;;;7.39;80.04;101215.28;4971044;28;20054;-70
2023/03/18 11:22:33;;;;;;;5.03;2.28;;;;;;;7.39;79.59;101217.84;4967965;28;20046;-71
2023/03/18 11:25:13;;;;;;;5.63;2.80;;;;;;;7.35;78.50;101209.09;4967984;28;20536;-71
2023/03/18 11:27:44;;;;;;;5.95;2.90;;;;;;;7.33;78.24;101205.56;4970888;28;20488;-71
2023/03/18 11:30:19;;;;;;;4.40;2.40;;;;;;;7.30;77.41;101211.44;4967104;28;20058;-71
2023/03/18 11:32:57;;;;;;;8.52;2.50;;;;;;;7.30;77.69;101206.28;4966281;28;20078;-71
2023/03/18 11:35:34;;;;;;;6.60;2.50;;;;;;;7.30;77.83;101207.97;4969877;28;20485;-71
2023/03/18 11:38:05;;;;;;;8.20;2.58;;;;;;;7.27;77.45;101208.72;4967802;28;20052;-71
2023/03/18 11:40:34;;;;;;;4.47;2.58;;;;;;;7.24;77.50;101208.56;4970485;28;20137;-70
2023/03/18 11:43:04;;;;;;;6.68;2.13;;;;;;;7.24;77.80;101202.50;4968484;28;20467;-70